PWSweather.com
Personal Weather Stations
Station Observations
IMAZOWIE6
WarszawaPL

WarszawaPL

Lat: 52.27957, Lon: 21.05489

Elevation: 100

Station Type: WS1080

http://stacjapogody.waw.pl/

High Low Average
Temperature 47.8°F8.8°C 41.9°F5.5°C 45.4°F7.4°C
Dew Point 27.9°F-2.3°C -168.6°F-111.4°C -62.4°F-52.4°C
Winds 2.0 mph 3.2 kmh Calm Calm Calm NCalm N
Wind Gusts 6.2 mph10.0 kmh -- 1.0 mph1.6 kmh
Humidity 47% 11% 41%
Pressure 29.24 in990.2 mb 29.08 in984.8 mb -
Precipitation 0.00 in0.0 mm - -
Hour Temp Dew Point Humidity Winds Wind Gusts Pressure Precip Precip Rate Daily Precip Total
12:05 AM 45.9°F7.7°C 24.4°F-4.2°C 43% Calm Calm 2.0 mph3.2 kmh 29.14 in986.8 mb 0.01 in0.3 mm 0.15 in3.8 mm 0.01 in0.3 mm
12:20 AM 46.0°F7.8°C 24.6°F-4.1°C 43% 0.6 mph N1.0 kmh N 2.8 mph4.5 kmh 29.13 in986.5 mb 0.00 in0.0 mm 0.00 in0.0 mm 0.01 in0.3 mm
12:35 AM 46.0°F7.8°C 24.6°F-4.1°C 43% Calm Calm 1.4 mph2.3 kmh 29.12 in986.1 mb 0.01 in0.3 mm 0.05 in1.3 mm 0.02 in0.5 mm
12:50 AM 46.0°F7.8°C 24.6°F-4.1°C 43% 1.4 mph N2.3 kmh N 4.0 mph6.4 kmh 29.12 in986.1 mb 0.01 in0.3 mm 0.00 in0.0 mm 0.02 in0.5 mm
01:05 AM 46.2°F7.9°C 24.8°F-4.0°C 43% 0.6 mph N1.0 kmh N 6.2 mph10.0 kmh 29.11 in985.8 mb 0.02 in0.5 mm 0.02 in0.5 mm 0.04 in1.0 mm
01:20 AM 46.2°F7.9°C 25.3°F-3.7°C 44% 0.6 mph N1.0 kmh N 3.4 mph5.5 kmh 29.10 in985.4 mb 0.00 in0.0 mm 0.00 in0.0 mm 0.04 in1.0 mm
01:35 AM 46.2°F7.9°C 25.3°F-3.7°C 44% 0.6 mph N1.0 kmh N 3.4 mph5.5 kmh 29.10 in985.4 mb 0.01 in0.3 mm 0.05 in1.3 mm 0.05 in1.3 mm
01:50 AM 46.4°F8.0°C 25.5°F-3.6°C 44% Calm Calm 1.4 mph2.3 kmh 29.10 in985.4 mb 0.01 in0.3 mm 0.00 in0.0 mm 0.05 in1.3 mm
02:05 AM 46.6°F8.1°C 25.6°F-3.6°C 44% 1.4 mph N2.3 kmh N 5.4 mph8.7 kmh 29.10 in985.4 mb 0.01 in0.3 mm 0.00 in0.0 mm 0.05 in1.3 mm
02:20 AM 46.6°F8.1°C 25.6°F-3.6°C 44% 0.6 mph N1.0 kmh N 4.8 mph7.7 kmh 29.10 in985.4 mb 0.01 in0.3 mm 0.00 in0.0 mm 0.05 in1.3 mm
02:35 AM 46.8°F8.2°C 25.8°F-3.4°C 44% Calm Calm 2.0 mph3.2 kmh 29.09 in985.1 mb 0.01 in0.3 mm 0.00 in0.0 mm 0.05 in1.3 mm
02:50 AM 46.6°F8.1°C 25.6°F-3.6°C 44% Calm Calm 2.8 mph4.5 kmh 29.09 in985.1 mb 0.01 in0.3 mm 0.00 in0.0 mm 0.05 in1.3 mm
03:05 AM 46.8°F8.2°C 26.3°F-3.2°C 45% 0.6 mph N1.0 kmh N 3.4 mph5.5 kmh 29.09 in985.1 mb 0.01 in0.3 mm 0.00 in0.0 mm 0.05 in1.3 mm
03:20 AM 46.8°F8.2°C 26.3°F-3.2°C 45% Calm Calm -- 29.08 in984.8 mb 0.01 in0.3 mm 0.00 in0.0 mm 0.05 in1.3 mm
03:35 AM 46.9°F8.3°C 26.5°F-3.1°C 45% Calm Calm 4.0 mph6.4 kmh 29.08 in984.8 mb 0.01 in0.3 mm 0.00 in0.0 mm 0.05 in1.3 mm
03:50 AM 46.8°F8.2°C 26.3°F-3.2°C 45% Calm Calm -- 29.08 in984.8 mb 0.01 in0.3 mm 0.00 in0.0 mm 0.05 in1.3 mm
04:05 AM 47.1°F8.4°C 26.7°F-2.9°C 45% Calm Calm -- 29.08 in984.8 mb 0.01 in0.3 mm 0.00 in0.0 mm 0.05 in1.3 mm
04:20 AM 47.1°F8.4°C 26.7°F-2.9°C 45% Calm Calm -- 29.08 in984.8 mb 0.01 in0.3 mm 0.00 in0.0 mm 0.05 in1.3 mm
04:35 AM 47.1°F8.4°C 26.7°F-2.9°C 45% Calm Calm -- 29.08 in984.8 mb 0.02 in0.5 mm 0.05 in1.3 mm 0.06 in1.5 mm
04:50 AM 46.8°F8.2°C 26.3°F-3.2°C 45% Calm Calm 0.6 mph1.0 kmh 29.08 in984.8 mb 0.04 in1.0 mm 0.05 in1.3 mm 0.07 in1.8 mm
05:05 AM 46.8°F8.2°C 26.3°F-3.2°C 45% Calm Calm -- 29.08 in984.8 mb 0.04 in1.0 mm 0.00 in0.0 mm 0.07 in1.8 mm
05:20 AM 46.8°F8.2°C 26.3°F-3.2°C 45% Calm Calm 1.4 mph2.3 kmh 29.08 in984.8 mb 0.01 in0.3 mm 0.00 in0.0 mm 0.07 in1.8 mm
05:35 AM 46.8°F8.2°C 26.3°F-3.2°C 45% Calm Calm 2.0 mph3.2 kmh 29.08 in984.8 mb 0.01 in0.3 mm 0.00 in0.0 mm 0.07 in1.8 mm
05:50 AM 46.8°F8.2°C 26.9°F-2.8°C 46% Calm Calm 2.0 mph3.2 kmh 29.09 in985.1 mb 0.01 in0.3 mm 0.00 in0.0 mm 0.07 in1.8 mm
06:05 AM 46.9°F8.3°C 27.0°F-2.8°C 46% Calm Calm 4.0 mph6.4 kmh 29.08 in984.8 mb 0.02 in0.5 mm 0.02 in0.5 mm 0.09 in2.3 mm
06:20 AM 46.9°F8.3°C 27.0°F-2.8°C 46% Calm Calm 1.4 mph2.3 kmh 29.08 in984.8 mb 0.00 in0.0 mm 0.00 in0.0 mm 0.09 in2.3 mm
06:35 AM 47.3°F8.5°C 27.4°F-2.6°C 46% Calm Calm 0.6 mph1.0 kmh 29.09 in985.1 mb 0.00 in0.0 mm 0.00 in0.0 mm 0.09 in2.3 mm
06:50 AM 47.1°F8.4°C 27.2°F-2.7°C 46% Calm Calm 4.0 mph6.4 kmh 29.09 in985.1 mb 0.00 in0.0 mm 0.00 in0.0 mm 0.09 in2.3 mm
07:05 AM 47.3°F8.5°C 27.4°F-2.6°C 46% 0.6 mph N1.0 kmh N 5.4 mph8.7 kmh 29.10 in985.4 mb 0.00 in0.0 mm 0.00 in0.0 mm 0.09 in2.3 mm
07:20 AM 47.5°F8.6°C 27.5°F-2.5°C 46% 1.4 mph N2.3 kmh N 4.8 mph7.7 kmh 29.10 in985.4 mb 0.00 in0.0 mm 0.00 in0.0 mm 0.09 in2.3 mm
07:35 AM 47.7°F8.7°C 27.7°F-2.4°C 46% 2.0 mph N3.2 kmh N 5.4 mph8.7 kmh 29.11 in985.8 mb 0.00 in0.0 mm 0.00 in0.0 mm 0.09 in2.3 mm
07:50 AM 47.5°F8.6°C 27.5°F-2.5°C 46% Calm Calm 5.4 mph8.7 kmh 29.11 in985.8 mb 0.00 in0.0 mm 0.00 in0.0 mm 0.09 in2.3 mm
08:05 AM 47.5°F8.6°C 27.5°F-2.5°C 46% Calm Calm 0.6 mph1.0 kmh 29.12 in986.1 mb 0.00 in0.0 mm 0.00 in0.0 mm 0.09 in2.3 mm
08:20 AM 47.7°F8.7°C 27.7°F-2.4°C 46% Calm Calm -- 29.12 in986.1 mb 0.01 in0.3 mm 0.05 in1.3 mm 0.10 in2.5 mm
08:35 AM 47.7°F8.7°C 27.7°F-2.4°C 46% Calm Calm -- 29.13 in986.5 mb 0.01 in0.3 mm 0.00 in0.0 mm 0.10 in2.5 mm
08:50 AM 47.7°F8.7°C 27.7°F-2.4°C 46% Calm Calm 0.6 mph1.0 kmh 29.13 in986.5 mb 0.01 in0.3 mm 0.00 in0.0 mm 0.10 in2.5 mm
09:05 AM 47.8°F8.8°C 27.9°F-2.3°C 46% Calm Calm 0.6 mph1.0 kmh 29.15 in987.1 mb 0.01 in0.3 mm 0.00 in0.0 mm 0.10 in2.5 mm
09:20 AM 47.3°F8.5°C 27.9°F-2.3°C 47% 0.6 mph N1.0 kmh N 3.4 mph5.5 kmh 29.15 in987.1 mb 0.00 in0.0 mm 0.00 in0.0 mm 0.10 in2.5 mm
09:35 AM 47.1°F8.4°C 27.2°F-2.7°C 46% Calm Calm 1.4 mph2.3 kmh 29.16 in987.5 mb 0.00 in0.0 mm 0.00 in0.0 mm 0.10 in2.5 mm
09:50 AM 46.9°F8.3°C 27.0°F-2.8°C 46% Calm Calm 1.4 mph2.3 kmh 29.17 in987.8 mb 0.00 in0.0 mm 0.00 in0.0 mm 0.10 in2.5 mm
10:05 AM 46.6°F8.1°C 26.7°F-2.9°C 46% Calm Calm 2.8 mph4.5 kmh 29.18 in988.1 mb 0.00 in0.0 mm 0.00 in0.0 mm 0.10 in2.5 mm
10:20 AM 46.8°F8.2°C 26.3°F-3.2°C 45% Calm Calm 2.0 mph3.2 kmh 29.19 in988.5 mb 0.00 in0.0 mm 0.00 in0.0 mm 0.10 in2.5 mm
10:35 AM 46.2°F7.9°C 25.3°F-3.7°C 44% Calm Calm 0.6 mph1.0 kmh 29.19 in988.5 mb 0.00 in0.0 mm 0.00 in0.0 mm 0.10 in2.5 mm
10:50 AM 46.2°F7.9°C 24.2°F-4.3°C 42% Calm Calm 0.6 mph1.0 kmh 29.20 in988.8 mb 0.00 in0.0 mm 0.00 in0.0 mm 0.10 in2.5 mm
11:05 AM 46.4°F8.0°C 22.0°F-5.6°C 38% Calm Calm 1.4 mph2.3 kmh 29.20 in988.8 mb 0.00 in0.0 mm 0.00 in0.0 mm 0.10 in2.5 mm
11:20 AM 46.4°F8.0°C 19.3°F-7.1°C 34% Calm Calm 0.6 mph1.0 kmh 29.21 in989.2 mb 0.00 in0.0 mm 0.00 in0.0 mm 0.10 in2.5 mm
11:35 AM 46.8°F8.2°C 17.5°F-8.1°C 31% Calm Calm 0.6 mph1.0 kmh 29.21 in989.2 mb 0.00 in0.0 mm 0.00 in0.0 mm 0.10 in2.5 mm
11:50 AM 46.9°F8.3°C 14.5°F-9.7°C 27% Calm Calm -- 29.20 in988.8 mb 0.00 in0.0 mm 0.00 in0.0 mm 0.10 in2.5 mm
12:05 PM 47.1°F8.4°C 12.9°F-10.6°C 25% Calm Calm 0.6 mph1.0 kmh 29.21 in989.2 mb 0.00 in0.0 mm 0.00 in0.0 mm 0.10 in2.5 mm
12:20 PM 46.8°F8.2°C 7.6°F-13.6°C 20% Calm Calm -- 29.20 in988.8 mb 0.00 in0.0 mm 0.00 in0.0 mm 0.10 in2.5 mm
12:35 PM 46.8°F8.2°C 2.8°F-16.2°C 16% Calm Calm -- 29.21 in989.2 mb 0.00 in0.0 mm 0.00 in0.0 mm 0.10 in2.5 mm
12:50 PM 44.1°F6.7°C -2.2°F-19.0°C 14% Calm Calm -- 29.21 in989.2 mb 0.00 in0.0 mm 0.00 in0.0 mm 0.10 in2.5 mm
01:05 PM 47.1°F8.4°C -4.8°F-20.4°C 11% Calm Calm -- 29.21 in989.2 mb 0.00 in0.0 mm 0.00 in0.0 mm 0.10 in2.5 mm
01:20 PM 46.8°F8.2°C -168.1°F-111.2°C - Calm Calm -- 29.21 in989.2 mb 0.00 in0.0 mm 0.00 in0.0 mm 0.10 in2.5 mm
01:35 PM 46.6°F8.1°C -168.1°F-111.2°C - Calm Calm 0.6 mph1.0 kmh 29.22 in989.5 mb 0.00 in0.0 mm 0.00 in0.0 mm 0.10 in2.5 mm
01:50 PM 46.2°F7.9°C -168.2°F-111.2°C - Calm Calm -- 29.23 in989.8 mb 0.00 in0.0 mm 0.00 in0.0 mm 0.10 in2.5 mm
02:05 PM 45.9°F7.7°C -168.2°F-111.2°C - Calm Calm -- 29.23 in989.8 mb 0.00 in0.0 mm 0.00 in0.0 mm 0.10 in2.5 mm
02:20 PM 45.7°F7.6°C -168.2°F-111.2°C - Calm Calm -- 29.23 in989.8 mb 0.00 in0.0 mm 0.00 in0.0 mm 0.10 in2.5 mm
02:35 PM 45.5°F7.5°C -168.3°F-111.3°C - Calm Calm -- 29.24 in990.2 mb 0.00 in0.0 mm 0.00 in0.0 mm 0.10 in2.5 mm
02:50 PM 45.3°F7.4°C -168.3°F-111.3°C - Calm Calm -- 29.23 in989.8 mb 0.00 in0.0 mm 0.00 in0.0 mm 0.10 in2.5 mm
03:05 PM 45.0°F7.2°C -168.3°F-111.3°C - Calm Calm -- 29.23 in989.8 mb 0.00 in0.0 mm 0.00 in0.0 mm 0.10 in2.5 mm
03:20 PM 44.6°F7.0°C -168.3°F-111.3°C - Calm Calm -- 29.23 in989.8 mb 0.00 in0.0 mm 0.00 in0.0 mm 0.10 in2.5 mm
03:35 PM 44.4°F6.9°C -168.4°F-111.3°C - Calm Calm -- 29.23 in989.8 mb 0.00 in0.0 mm 0.00 in0.0 mm 0.10 in2.5 mm
03:50 PM 44.1°F6.7°C -168.4°F-111.3°C - Calm Calm -- 29.24 in990.2 mb 0.00 in0.0 mm 0.00 in0.0 mm 0.10 in2.5 mm
04:05 PM 43.9°F6.6°C -168.4°F-111.3°C - Calm Calm -- 29.24 in990.2 mb 0.00 in0.0 mm 0.00 in0.0 mm 0.10 in2.5 mm
04:20 PM 43.7°F6.5°C -168.4°F-111.3°C - Calm Calm -- 29.24 in990.2 mb 0.00 in0.0 mm 0.00 in0.0 mm 0.10 in2.5 mm
04:35 PM 43.7°F6.5°C -168.4°F-111.3°C - Calm Calm -- 29.24 in990.2 mb 0.00 in0.0 mm 0.00 in0.0 mm 0.10 in2.5 mm
04:50 PM 43.7°F6.5°C -168.4°F-111.3°C - Calm Calm -- 29.24 in990.2 mb 0.00 in0.0 mm 0.00 in0.0 mm 0.10 in2.5 mm
05:05 PM 43.2°F6.2°C -168.5°F-111.4°C - Calm Calm -- 29.24 in990.2 mb 0.00 in0.0 mm 0.00 in0.0 mm 0.10 in2.5 mm
05:20 PM 43.0°F6.1°C -168.5°F-111.4°C - Calm Calm -- 29.24 in990.2 mb 0.00 in0.0 mm 0.00 in0.0 mm 0.10 in2.5 mm
05:35 PM 43.0°F6.1°C -168.5°F-111.4°C - Calm Calm -- 29.23 in989.8 mb 0.00 in0.0 mm 0.00 in0.0 mm 0.10 in2.5 mm
05:50 PM 43.5°F6.4°C -168.4°F-111.3°C - Calm Calm 2.0 mph3.2 kmh 29.23 in989.8 mb 0.00 in0.0 mm 0.00 in0.0 mm 0.10 in2.5 mm
06:05 PM 43.7°F6.5°C -168.4°F-111.3°C - Calm Calm -- 29.23 in989.8 mb 0.00 in0.0 mm 0.00 in0.0 mm 0.10 in2.5 mm
06:20 PM 44.1°F6.7°C -168.4°F-111.3°C - Calm Calm -- 29.22 in989.5 mb 0.00 in0.0 mm 0.00 in0.0 mm 0.10 in2.5 mm
06:35 PM 43.5°F6.4°C -168.4°F-111.3°C - Calm Calm 0.6 mph1.0 kmh 29.22 in989.5 mb 0.00 in0.0 mm 0.00 in0.0 mm 0.10 in2.5 mm
06:50 PM 43.0°F6.1°C -168.5°F-111.4°C - Calm Calm -- 29.22 in989.5 mb 0.00 in0.0 mm 0.00 in0.0 mm 0.10 in2.5 mm
07:05 PM 42.4°F5.8°C -168.6°F-111.4°C - Calm Calm -- 29.22 in989.5 mb 0.00 in0.0 mm 0.00 in0.0 mm 0.10 in2.5 mm
07:20 PM 42.3°F5.7°C -168.6°F-111.4°C - Calm Calm -- 29.21 in989.2 mb 0.00 in0.0 mm 0.00 in0.0 mm 0.10 in2.5 mm
07:35 PM 42.1°F5.6°C -168.6°F-111.4°C - Calm Calm -- 29.21 in989.2 mb 0.00 in0.0 mm 0.00 in0.0 mm 0.10 in2.5 mm
07:50 PM 41.9°F5.5°C -168.6°F-111.4°C - Calm Calm -- 29.21 in989.2 mb 0.00 in0.0 mm 0.00 in0.0 mm 0.10 in2.5 mm
08:05 PM 42.3°F5.7°C -168.6°F-111.4°C - Calm Calm -- 29.21 in989.2 mb 0.00 in0.0 mm 0.00 in0.0 mm 0.10 in2.5 mm
08:20 PM 42.4°F5.8°C -168.6°F-111.4°C - Calm Calm -- 29.21 in989.2 mb 0.00 in0.0 mm 0.00 in0.0 mm 0.10 in2.5 mm
08:35 PM 42.6°F5.9°C -168.5°F-111.4°C - Calm Calm -- 29.20 in988.8 mb 0.00 in0.0 mm 0.00 in0.0 mm 0.10 in2.5 mm
08:50 PM 42.8°F6.0°C -168.5°F-111.4°C - Calm Calm -- 29.20 in988.8 mb 0.00 in0.0 mm 0.00 in0.0 mm 0.10 in2.5 mm
09:05 PM 42.6°F5.9°C -168.5°F-111.4°C - Calm Calm 0.6 mph1.0 kmh 29.20 in988.8 mb 0.00 in0.0 mm 0.00 in0.0 mm 0.10 in2.5 mm
09:20 PM 43.2°F6.2°C -168.5°F-111.4°C - Calm Calm -- 29.19 in988.5 mb 0.00 in0.0 mm 0.00 in0.0 mm 0.10 in2.5 mm
09:35 PM 43.0°F6.1°C -168.5°F-111.4°C - Calm Calm -- 29.19 in988.5 mb 0.00 in0.0 mm 0.00 in0.0 mm 0.10 in2.5 mm
09:50 PM 42.8°F6.0°C -168.5°F-111.4°C - Calm Calm -- 29.18 in988.1 mb 0.00 in0.0 mm 0.00 in0.0 mm 0.10 in2.5 mm
10:05 PM 42.8°F6.0°C -168.5°F-111.4°C - Calm Calm -- 29.18 in988.1 mb 0.00 in0.0 mm 0.00 in0.0 mm 0.10 in2.5 mm
10:20 PM 42.3°F5.7°C -168.6°F-111.4°C - Calm Calm -- 29.18 in988.1 mb 0.00 in0.0 mm 0.00 in0.0 mm 0.10 in2.5 mm
10:35 PM 42.4°F5.8°C -168.6°F-111.4°C - Calm Calm -- 29.17 in987.8 mb 0.00 in0.0 mm 0.00 in0.0 mm 0.10 in2.5 mm
10:50 PM 42.6°F5.9°C -168.5°F-111.4°C - Calm Calm 0.6 mph1.0 kmh 29.17 in987.8 mb 0.00 in0.0 mm 0.00 in0.0 mm 0.10 in2.5 mm
11:05 PM 42.8°F6.0°C -168.5°F-111.4°C - Calm Calm -- 29.16 in987.5 mb 0.00 in0.0 mm 0.00 in0.0 mm 0.10 in2.5 mm
11:20 PM 42.8°F6.0°C -168.5°F-111.4°C - Calm Calm -- 29.16 in987.5 mb 0.00 in0.0 mm 0.00 in0.0 mm 0.10 in2.5 mm
11:35 PM 43.0°F6.1°C -168.5°F-111.4°C - Calm Calm -- 29.16 in987.5 mb 0.00 in0.0 mm 0.00 in0.0 mm 0.10 in2.5 mm
11:50 PM 42.8°F6.0°C -168.5°F-111.4°C - Calm Calm 1.4 mph2.3 kmh 29.16 in987.5 mb 0.00 in0.0 mm 0.00 in0.0 mm 0.10 in2.5 mm